sensor_id;sensor_type;location;lat;lon;timestamp;pressure;altitude;pressure_sealevel;temperature;humidity
60375;BME280;70244;48.792;9.172;2024-01-07T05:15:48;97010.26;;;17.06;64.63
60375;BME280;70244;48.792;9.172;2024-01-07T05:18:20;97012.72;;;16.99;64.75
60375;BME280;70244;48.792;9.172;2024-01-07T05:21:14;97016.67;;;16.81;65.48
60375;BME280;70244;48.792;9.172;2024-01-07T05:23:44;97020.49;;;16.62;65.75
60375;BME280;70244;48.792;9.172;2024-01-07T05:26:15;97021.28;;;16.83;65.20
60375;BME280;70244;48.792;9.172;2024-01-07T05:28:45;97023.33;;;16.82;65.22
60375;BME280;70244;48.792;9.172;2024-01-07T05:31:17;97026.65;;;16.85;65.18
60375;BME280;70244;48.792;9.172;2024-01-07T05:33:47;97032.45;;;16.64;65.72
60375;BME280;70244;48.792;9.172;2024-01-07T05:36:18;97029.19;;;17.02;64.77
60375;BME280;70244;48.792;9.172;2024-01-07T05:38:48;97029.45;;;16.98;64.84
60375;BME280;70244;48.792;9.172;2024-01-07T05:41:19;97031.27;;;16.82;65.33
60375;BME280;70244;48.792;9.172;2024-01-07T05:43:50;97033.26;;;16.99;64.81
60375;BME280;70244;48.792;9.172;2024-01-07T05:46:21;97031.26;;;16.85;65.21
60375;BME280;70244;48.792;9.172;2024-01-07T05:48:52;97036.86;;;17.05;64.71
60375;BME280;70244;48.792;9.172;2024-01-07T05:51:22;97038.42;;;17.04;64.76
60375;BME280;70244;48.792;9.172;2024-01-07T05:53:53;97044.99;;;16.96;64.85
60375;BME280;70244;48.792;9.172;2024-01-07T05:56:24;97045.01;;;17.19;64.22
60375;BME280;70244;48.792;9.172;2024-01-07T05:58:55;97049.87;;;16.99;64.78
60375;BME280;70244;48.792;9.172;2024-01-07T06:01:26;97051.19;;;16.93;64.88
60375;BME280;70244;48.792;9.172;2024-01-07T06:03:56;97061.84;;;16.73;65.36
60375;BME280;70244;48.792;9.172;2024-01-07T06:06:27;97055.49;;;16.83;65.13
60375;BME280;70244;48.792;9.172;2024-01-07T06:08:58;97060.54;;;16.83;65.06
60375;BME280;70244;48.792;9.172;2024-01-07T06:11:29;97060.90;;;16.75;65.34
60375;BME280;70244;48.792;9.172;2024-01-07T06:14:00;97059.41;;;16.95;64.85
60375;BME280;70244;48.792;9.172;2024-01-07T06:16:30;97063.37;;;16.92;64.97
60375;BME280;70244;48.792;9.172;2024-01-07T06:19:01;97065.74;;;16.81;65.24
60375;BME280;70244;48.792;9.172;2024-01-07T06:21:32;97061.77;;;16.95;64.93
60375;BME280;70244;48.792;9.172;2024-01-07T06:24:03;97073.24;;;16.76;65.38
60375;BME280;70244;48.792;9.172;2024-01-07T06:26:34;97074.62;;;16.93;65.03
60375;BME280;70244;48.792;9.172;2024-01-07T06:29:04;97077.11;;;16.86;65.12
60375;BME280;70244;48.792;9.172;2024-01-07T06:31:35;97074.56;;;16.91;65.08
60375;BME280;70244;48.792;9.172;2024-01-07T06:34:06;97074.65;;;17.08;64.54
60375;BME280;70244;48.792;9.172;2024-01-07T06:36:37;97075.45;;;17.32;64.01
60375;BME280;70244;48.792;9.172;2024-01-07T06:39:07;97078.95;;;17.23;64.09
60375;BME280;70244;48.792;9.172;2024-01-07T06:41:38;97084.47;;;17.06;64.63
60375;BME280;70244;48.792;9.172;2024-01-07T06:44:09;97088.42;;;17.09;64.48
60375;BME280;70244;48.792;9.172;2024-01-07T06:46:40;97095.81;;;16.86;65.03
60375;BME280;70244;48.792;9.172;2024-01-07T06:49:11;97100.06;;;16.98;64.74
60375;BME280;70244;48.792;9.172;2024-01-07T06:51:41;97102.76;;;16.74;65.28
60375;BME280;70244;48.792;9.172;2024-01-07T06:54:12;97102.43;;;16.69;65.38
60375;BME280;70244;48.792;9.172;2024-01-07T06:56:43;97103.91;;;16.69;65.43
60375;BME280;70244;48.792;9.172;2024-01-07T06:59:14;97105.16;;;16.72;65.43
60375;BME280;70244;48.792;9.172;2024-01-07T07:01:45;97106.81;;;16.79;65.13
60375;BME280;70244;48.792;9.172;2024-01-07T07:04:15;97113.85;;;17.06;64.48
60375;BME280;70244;48.792;9.172;2024-01-07T07:06:46;97117.53;;;16.78;65.27
60375;BME280;70244;48.792;9.172;2024-01-07T07:09:17;97120.06;;;16.74;65.39
60375;BME280;70244;48.792;9.172;2024-01-07T07:11:48;97121.96;;;16.71;65.53
60375;BME280;70244;48.792;9.172;2024-01-07T07:14:18;97128.26;;;16.63;65.75
60375;BME280;70244;48.792;9.172;2024-01-07T07:16:49;97129.23;;;16.74;65.44
60375;BME280;70244;48.792;9.172;2024-01-07T07:19:20;97128.14;;;16.62;65.72
60375;BME280;70244;48.792;9.172;2024-01-07T07:21:51;97132.30;;;16.63;65.68
60375;BME280;70244;48.792;9.172;2024-01-07T07:24:22;97138.04;;;16.72;65.46
60375;BME280;70244;48.792;9.172;2024-01-07T07:26:52;97143.88;;;16.85;65.13
60375;BME280;70244;48.792;9.172;2024-01-07T07:29:23;97146.17;;;16.62;65.66
60375;BME280;70244;48.792;9.172;2024-01-07T07:31:54;97148.09;;;16.73;65.33
60375;BME280;70244;48.792;9.172;2024-01-07T07:34:25;97152.38;;;16.87;65.04
60375;BME280;70244;48.792;9.172;2024-01-07T07:36:56;97153.95;;;16.95;64.73
60375;BME280;70244;48.792;9.172;2024-01-07T07:39:26;97158.26;;;16.81;64.97
60375;BME280;70244;48.792;9.172;2024-01-07T07:41:57;97163.26;;;16.75;65.21
60375;BME280;70244;48.792;9.172;2024-01-07T07:44:28;97169.98;;;17.02;64.61
60375;BME280;70244;48.792;9.172;2024-01-07T07:46:59;97171.42;;;16.85;64.93
60375;BME280;70244;48.792;9.172;2024-01-07T07:49:29;97172.75;;;16.76;65.06
60375;BME280;70244;48.792;9.172;2024-01-07T07:52:00;97176.11;;;16.60;65.69
60375;BME280;70244;48.792;9.172;2024-01-07T07:54:31;97180.24;;;16.73;65.31
60375;BME280;70244;48.792;9.172;2024-01-07T07:57:02;97179.24;;;16.83;65.00
60375;BME280;70244;48.792;9.172;2024-01-07T07:59:33;97182.48;;;16.61;65.66
60375;BME280;70244;48.792;9.172;2024-01-07T08:02:04;97181.83;;;16.73;65.21
60375;BME280;70244;48.792;9.172;2024-01-07T08:04:34;97184.23;;;16.58;65.63
60375;BME280;70244;48.792;9.172;2024-01-07T08:07:05;97186.56;;;16.94;64.73
60375;BME280;70244;48.792;9.172;2024-01-07T08:09:36;97188.95;;;16.98;64.57
60375;BME280;70244;48.792;9.172;2024-01-07T08:12:07;97193.97;;;16.72;65.23
60375;BME280;70244;48.792;9.172;2024-01-07T08:14:37;97194.05;;;16.79;65.00
60375;BME280;70244;48.792;9.172;2024-01-07T08:17:08;97193.13;;;16.62;65.44
60375;BME280;70244;48.792;9.172;2024-01-07T08:19:39;97198.18;;;16.65;65.42
60375;BME280;70244;48.792;9.172;2024-01-07T08:22:10;97201.20;;;16.62;65.44
60375;BME280;70244;48.792;9.172;2024-01-07T08:24:41;97201.07;;;16.46;65.94
60375;BME280;70244;48.792;9.172;2024-01-07T08:27:11;97201.59;;;16.29;66.36
60375;BME280;70244;48.792;9.172;2024-01-07T08:29:42;97201.74;;;16.34;66.26
60375;BME280;70244;48.792;9.172;2024-01-07T08:32:13;97204.48;;;16.27;66.47
60375;BME280;70244;48.792;9.172;2024-01-07T08:34:44;97210.19;;;16.56;65.73
60375;BME280;70244;48.792;9.172;2024-01-07T08:37:15;97211.67;;;16.88;64.82
60375;BME280;70244;48.792;9.172;2024-01-07T08:39:45;97206.17;;;16.41;66.04
60375;BME280;70244;48.792;9.172;2024-01-07T08:42:16;97211.32;;;16.53;65.83
60375;BME280;70244;48.792;9.172;2024-01-07T08:44:47;97214.54;;;16.51;65.85
60375;BME280;70244;48.792;9.172;2024-01-07T08:47:18;97217.09;;;16.55;65.82
60375;BME280;70244;48.792;9.172;2024-01-07T08:49:48;97215.98;;;16.60;65.64
60375;BME280;70244;48.792;9.172;2024-01-07T08:52:19;97223.09;;;16.65;65.56
60375;BME280;70244;48.792;9.172;2024-01-07T08:54:50;97221.31;;;16.68;65.38
60375;BME280;70244;48.792;9.172;2024-01-07T08:57:21;97220.10;;;16.59;65.58
60375;BME280;70244;48.792;9.172;2024-01-07T08:59:52;97223.32;;;16.69;65.33
60375;BME280;70244;48.792;9.172;2024-01-07T09:02:24;97225.20;;;16.53;65.72
60375;BME280;70244;48.792;9.172;2024-01-07T09:04:53;97234.64;;;16.76;65.06
60375;BME280;70244;48.792;9.172;2024-01-07T09:07:24;97235.35;;;16.64;65.43
60375;BME280;70244;48.792;9.172;2024-01-07T09:09:55;97240.10;;;16.62;65.42
60375;BME280;70244;48.792;9.172;2024-01-07T09:12:27;97241.47;;;16.54;65.68
60375;BME280;70244;48.792;9.172;2024-01-07T09:14:56;97250.42;;;16.98;64.52
60375;BME280;70244;48.792;9.172;2024-01-07T09:17:27;97248.87;;;16.72;65.12
60375;BME280;70244;48.792;9.172;2024-01-07T09:19:58;97254.58;;;16.61;65.47
60375;BME280;70244;48.792;9.172;2024-01-07T09:22:29;97257.23;;;16.66;65.36
60375;BME280;70244;48.792;9.172;2024-01-07T09:25:00;97258.32;;;16.64;65.35
60375;BME280;70244;48.792;9.172;2024-01-07T09:27:31;97260.92;;;16.63;65.35
60375;BME280;70244;48.792;9.172;2024-01-07T09:30:02;97267.74;;;16.53;65.70
60375;BME280;70244;48.792;9.172;2024-01-07T09:32:32;97268.92;;;17.13;64.24
60375;BME280;70244;48.792;9.172;2024-01-07T09:35:03;97274.66;;;17.12;64.14
60375;BME280;70244;48.792;9.172;2024-01-07T09:37:33;97276.85;;;17.08;64.27
60375;BME280;70244;48.792;9.172;2024-01-07T09:40:05;97271.74;;;16.90;64.77
60375;BME280;70244;48.792;9.172;2024-01-07T09:42:35;97278.60;;;17.06;64.37
60375;BME280;70244;48.792;9.172;2024-01-07T09:45:06;97283.36;;;17.01;64.45
60375;BME280;70244;48.792;9.172;2024-01-07T09:47:37;97282.57;;;17.06;64.33
60375;BME280;70244;48.792;9.172;2024-01-07T09:50:08;97279.95;;;17.10;64.19
60375;BME280;70244;48.792;9.172;2024-01-07T09:52:38;97278.54;;;17.04;64.31
60375;BME280;70244;48.792;9.172;2024-01-07T09:55:09;97276.34;;;17.06;64.20
60375;BME280;70244;48.792;9.172;2024-01-07T09:57:41;97273.10;;;17.20;63.96
60375;BME280;70244;48.792;9.172;2024-01-07T10:00:12;97276.50;;;17.06;64.23
60375;BME280;70244;48.792;9.172;2024-01-07T10:02:42;97273.62;;;17.12;64.00
60375;BME280;70244;48.792;9.172;2024-01-07T10:05:12;97273.43;;;17.06;64.22
60375;BME280;70244;48.792;9.172;2024-01-07T10:07:43;97270.57;;;17.04;64.24
60375;BME280;70244;48.792;9.172;2024-01-07T10:10:14;97267.12;;;17.17;63.87
60375;BME280;70244;48.792;9.172;2024-01-07T10:12:45;97270.97;;;17.04;64.20
60375;BME280;70244;48.792;9.172;2024-01-07T10:15:15;97265.37;;;16.85;64.71
60375;BME280;70244;48.792;9.172;2024-01-07T10:17:46;97262.07;;;16.72;65.01
60375;BME280;70244;48.792;9.172;2024-01-07T10:20:17;97269.69;;;16.92;64.60
60375;BME280;70244;48.792;9.172;2024-01-07T10:22:50;97268.95;;;16.81;64.79
60375;BME280;70244;48.792;9.172;2024-01-07T10:25:18;97271.04;;;16.82;64.79
60375;BME280;70244;48.792;9.172;2024-01-07T10:27:49;97276.44;;;16.95;64.53
60375;BME280;70244;48.792;9.172;2024-01-07T10:30:20;97281.67;;;17.00;64.31
60375;BME280;70244;48.792;9.172;2024-01-07T10:32:55;97283.08;;;16.93;64.63
60375;BME280;70244;48.792;9.172;2024-01-07T10:35:22;97286.66;;;17.01;64.39
60375;BME280;70244;48.792;9.172;2024-01-07T10:37:52;97290.30;;;17.06;64.22
60375;BME280;70244;48.792;9.172;2024-01-07T10:40:23;97290.33;;;16.98;64.45
60375;BME280;70244;48.792;9.172;2024-01-07T10:42:54;97285.67;;;16.84;64.69
60375;BME280;70244;48.792;9.172;2024-01-07T10:45:25;97291.54;;;16.85;64.67
60375;BME280;70244;48.792;9.172;2024-01-07T10:47:59;97294.06;;;16.81;64.79
60375;BME280;70244;48.792;9.172;2024-01-07T10:50:27;97295.07;;;16.71;65.05
60375;BME280;70244;48.792;9.172;2024-01-07T10:53:02;97294.55;;;16.86;64.68
60375;BME280;70244;48.792;9.172;2024-01-07T10:55:30;97296.39;;;16.87;64.59
60375;BME280;70244;48.792;9.172;2024-01-07T10:57:59;97294.71;;;16.91;64.47
60375;BME280;70244;48.792;9.172;2024-01-07T11:00:29;97299.54;;;16.90;64.45
60375;BME280;70244;48.792;9.172;2024-01-07T11:03:06;97307.56;;;16.80;64.71
60375;BME280;70244;48.792;9.172;2024-01-07T11:05:39;97306.15;;;16.86;64.62
60375;BME280;70244;48.792;9.172;2024-01-07T11:08:06;97301.75;;;16.50;65.56
60375;BME280;70244;48.792;9.172;2024-01-07T11:10:38;97301.41;;;16.52;65.56
60375;BME280;70244;48.792;9.172;2024-01-07T11:13:03;97308.57;;;16.25;66.25
60375;BME280;70244;48.792;9.172;2024-01-07T11:18:05;97308.09;;;16.12;66.76
60375;BME280;70244;48.792;9.172;2024-01-07T11:20:35;97301.73;;;16.07;66.94
60375;BME280;70244;48.792;9.172;2024-01-07T11:25:37;97305.18;;;16.24;66.79
60375;BME280;70244;48.792;9.172;2024-01-07T11:28:08;97297.79;;;16.21;66.89
60375;BME280;70244;48.792;9.172;2024-01-07T11:30:39;97298.67;;;16.22;66.97
60375;BME280;70244;48.792;9.172;2024-01-07T11:33:12;97298.37;;;16.20;67.19
60375;BME280;70244;48.792;9.172;2024-01-07T11:38:11;97300.88;;;16.17;67.42
60375;BME280;70244;48.792;9.172;2024-01-07T11:40:42;97301.45;;;16.19;67.48
60375;BME280;70244;48.792;9.172;2024-01-07T11:43:12;97301.44;;;16.16;67.56
60375;BME280;70244;48.792;9.172;2024-01-07T11:45:43;97301.77;;;16.16;67.63
60375;BME280;70244;48.792;9.172;2024-01-07T11:48:14;97303.53;;;16.33;67.27
60375;BME280;70244;48.792;9.172;2024-01-07T11:50:45;97304.02;;;16.44;67.02
60375;BME280;70244;48.792;9.172;2024-01-07T11:53:16;97303.76;;;16.56;66.81
60375;BME280;70244;48.792;9.172;2024-01-07T11:55:47;97304.27;;;16.62;66.72
60375;BME280;70244;48.792;9.172;2024-01-07T11:58:17;97308.75;;;16.40;67.35
60375;BME280;70244;48.792;9.172;2024-01-07T12:00:48;97307.31;;;16.47;67.14
60375;BME280;70244;48.792;9.172;2024-01-07T12:03:19;97306.85;;;16.44;67.24
60375;BME280;70244;48.792;9.172;2024-01-07T12:05:50;97309.96;;;16.50;67.11
60375;BME280;70244;48.792;9.172;2024-01-07T12:08:20;97310.89;;;16.46;67.21
60375;BME280;70244;48.792;9.172;2024-01-07T12:10:51;97313.46;;;16.26;67.78
60375;BME280;70244;48.792;9.172;2024-01-07T12:13:22;97314.70;;;16.18;68.12
60375;BME280;70244;48.792;9.172;2024-01-07T12:15:53;97314.00;;;16.09;68.45
60375;BME280;70244;48.792;9.172;2024-01-07T12:18:23;97318.45;;;16.07;68.51
60375;BME280;70244;48.792;9.172;2024-01-07T12:20:55;97317.56;;;15.98;68.82
60375;BME280;70244;48.792;9.172;2024-01-07T12:23:25;97319.78;;;15.94;68.97
60375;BME280;70244;48.792;9.172;2024-01-07T12:28:27;97324.52;;;15.85;69.30
60375;BME280;70244;48.792;9.172;2024-01-07T12:30:58;97323.89;;;15.86;69.31
60375;BME280;70244;48.792;9.172;2024-01-07T12:33:28;97325.95;;;15.84;69.39
60375;BME280;70244;48.792;9.172;2024-01-07T12:36:00;97325.41;;;15.74;69.71
60375;BME280;70244;48.792;9.172;2024-01-07T12:38:30;97325.12;;;15.69;69.89
60375;BME280;70244;48.792;9.172;2024-01-07T12:41:01;97324.30;;;15.79;69.68
60375;BME280;70244;48.792;9.172;2024-01-07T12:43:31;97329.65;;;15.70;70.05
60375;BME280;70244;48.792;9.172;2024-01-07T12:46:02;97327.54;;;15.63;70.24
60375;BME280;70244;48.792;9.172;2024-01-07T12:48:33;97330.14;;;15.74;70.03
60375;BME280;70244;48.792;9.172;2024-01-07T12:51:05;97329.51;;;15.73;70.13
60375;BME280;70244;48.792;9.172;2024-01-07T12:53:34;97329.52;;;15.66;70.27
60375;BME280;70244;48.792;9.172;2024-01-07T12:56:06;97331.27;;;15.72;70.16
60375;BME280;70244;48.792;9.172;2024-01-07T12:58:36;97333.61;;;15.89;69.76
60375;BME280;70244;48.792;9.172;2024-01-07T13:01:07;97333.68;;;16.00;69.44
60375;BME280;70244;48.792;9.172;2024-01-07T13:03:38;97337.61;;;15.96;69.52
60375;BME280;70244;48.792;9.172;2024-01-07T13:06:08;97342.54;;;16.05;69.30
60375;BME280;70244;48.792;9.172;2024-01-07T13:08:39;97343.41;;;16.10;69.09
60375;BME280;70244;48.792;9.172;2024-01-07T13:11:10;97344.28;;;16.19;68.90
60375;BME280;70244;48.792;9.172;2024-01-07T13:13:41;97347.55;;;16.19;68.89
60375;BME280;70244;48.792;9.172;2024-01-07T13:16:11;97348.51;;;16.08;69.20
60375;BME280;70244;48.792;9.172;2024-01-07T13:18:42;97353.65;;;16.04;69.34
60375;BME280;70244;48.792;9.172;2024-01-07T13:21:13;97355.93;;;15.99;69.47
60375;BME280;70244;48.792;9.172;2024-01-07T13:23:44;97358.36;;;15.92;69.66
60375;BME280;70244;48.792;9.172;2024-01-07T13:26:16;97360.40;;;15.90;69.76
60375;BME280;70244;48.792;9.172;2024-01-07T13:28:45;97367.08;;;15.96;69.55
60375;BME280;70244;48.792;9.172;2024-01-07T13:31:16;97366.99;;;15.73;70.21
60375;BME280;70244;48.792;9.172;2024-01-07T13:33:47;97369.33;;;15.62;70.53
60375;BME280;70244;48.792;9.172;2024-01-07T13:36:18;97371.61;;;15.73;70.24
60375;BME280;70244;48.792;9.172;2024-01-07T13:38:49;97377.38;;;15.49;70.90
60375;BME280;70244;48.792;9.172;2024-01-07T13:41:19;97378.07;;;15.52;70.84
60375;BME280;70244;48.792;9.172;2024-01-07T13:43:50;97383.85;;;15.48;70.90
60375;BME280;70244;48.792;9.172;2024-01-07T13:46:21;97386.93;;;15.42;71.12
60375;BME280;70244;48.792;9.172;2024-01-07T13:48:52;97388.27;;;15.54;70.83
60375;BME280;70244;48.792;9.172;2024-01-07T13:51:22;97394.85;;;15.56;70.67
60375;BME280;70244;48.792;9.172;2024-01-07T13:53:53;97390.12;;;15.71;70.31
60375;BME280;70244;48.792;9.172;2024-01-07T13:56:24;97394.55;;;15.80;69.99
60375;BME280;70244;48.792;9.172;2024-01-07T13:58:55;97397.84;;;15.78;70.02
60375;BME280;70244;48.792;9.172;2024-01-07T14:01:26;97403.36;;;15.85;69.81
60375;BME280;70244;48.792;9.172;2024-01-07T14:03:56;97404.66;;;15.73;70.04
60375;BME280;70244;48.792;9.172;2024-01-07T14:06:27;97407.07;;;15.78;69.95
60375;BME280;70244;48.792;9.172;2024-01-07T14:08:58;97413.07;;;15.76;70.03
60375;BME280;70244;48.792;9.172;2024-01-07T14:11:29;97419.86;;;15.70;70.17
60375;BME280;70244;48.792;9.172;2024-01-07T14:14:00;97415.86;;;15.55;70.54
60375;BME280;70244;48.792;9.172;2024-01-07T14:16:30;97419.57;;;15.60;70.40
60375;BME280;70244;48.792;9.172;2024-01-07T14:19:01;97420.73;;;15.49;70.72
60375;BME280;70244;48.792;9.172;2024-01-07T14:21:32;97424.45;;;15.43;70.96
60375;BME280;70244;48.792;9.172;2024-01-07T14:24:03;97423.95;;;15.48;70.81
60375;BME280;70244;48.792;9.172;2024-01-07T14:26:33;97428.20;;;15.43;70.94
60375;BME280;70244;48.792;9.172;2024-01-07T14:29:05;97425.74;;;15.48;70.73
60375;BME280;70244;48.792;9.172;2024-01-07T14:31:35;97431.52;;;15.37;71.03
60375;BME280;70244;48.792;9.172;2024-01-07T14:34:06;97429.74;;;15.22;71.45
60375;BME280;70244;48.792;9.172;2024-01-07T14:36:40;97432.60;;;15.27;71.31
60375;BME280;70244;48.792;9.172;2024-01-07T14:39:07;97435.45;;;15.19;71.51
60375;BME280;70244;48.792;9.172;2024-01-07T14:41:38;97438.04;;;15.25;71.41
60375;BME280;70244;48.792;9.172;2024-01-07T14:44:09;97440.98;;;15.27;71.39
60375;BME280;70244;48.792;9.172;2024-01-07T14:46:40;97444.94;;;15.32;71.15
60375;BME280;70244;48.792;9.172;2024-01-07T14:49:10;97447.02;;;15.44;70.81
60375;BME280;70244;48.792;9.172;2024-01-07T14:51:41;97448.72;;;15.64;70.29
60375;BME280;70244;48.792;9.172;2024-01-07T14:54:12;97450.72;;;15.55;70.46
60375;BME280;70244;48.792;9.172;2024-01-07T14:56:43;97453.27;;;15.62;70.22
60375;BME280;70244;48.792;9.172;2024-01-07T14:59:14;97456.04;;;15.80;69.76
60375;BME280;70244;48.792;9.172;2024-01-07T15:01:44;97456.69;;;15.65;70.16
60375;BME280;70244;48.792;9.172;2024-01-07T15:04:15;97463.71;;;15.63;70.18
60375;BME280;70244;48.792;9.172;2024-01-07T15:06:46;97467.39;;;15.68;70.03
60375;BME280;70244;48.792;9.172;2024-01-07T15:09:16;97468.02;;;15.52;70.48
60375;BME280;70244;48.792;9.172;2024-01-07T15:11:47;97475.16;;;15.46;70.69
60375;BME280;70244;48.792;9.172;2024-01-07T15:14:18;97480.54;;;15.40;70.94
60375;BME280;70244;48.792;9.172;2024-01-07T15:16:49;97482.51;;;15.29;71.21
60375;BME280;70244;48.792;9.172;2024-01-07T15:19:20;97489.08;;;15.24;71.35
60375;BME280;70244;48.792;9.172;2024-01-07T15:21:50;97493.47;;;15.23;71.41
60375;BME280;70244;48.792;9.172;2024-01-07T15:24:21;97499.63;;;15.17;71.68
60375;BME280;70244;48.792;9.172;2024-01-07T15:26:52;97503.85;;;15.11;71.87
60375;BME280;70244;48.792;9.172;2024-01-07T15:29:23;97504.71;;;15.08;71.99
60375;BME280;70244;48.792;9.172;2024-01-07T15:31:54;97504.75;;;15.12;71.87
60375;BME280;70244;48.792;9.172;2024-01-07T15:34:24;97508.41;;;15.11;71.92
60375;BME280;70244;48.792;9.172;2024-01-07T15:36:55;97508.32;;;15.18;71.75
60375;BME280;70244;48.792;9.172;2024-01-07T15:39:26;97516.74;;;15.07;72.05
60375;BME280;70244;48.792;9.172;2024-01-07T15:41:57;97519.58;;;15.20;71.73
60375;BME280;70244;48.792;9.172;2024-01-07T15:44:28;97523.28;;;15.15;71.88
60375;BME280;70244;48.792;9.172;2024-01-07T15:46:58;97528.52;;;15.31;71.42
60375;BME280;70244;48.792;9.172;2024-01-07T15:49:29;97530.16;;;15.40;71.15
60375;BME280;70244;48.792;9.172;2024-01-07T15:52:00;97533.95;;;15.42;71.16
60375;BME280;70244;48.792;9.172;2024-01-07T15:54:31;97528.78;;;15.55;70.84
60375;BME280;70244;48.792;9.172;2024-01-07T15:57:02;97530.68;;;15.49;70.94
60375;BME280;70244;48.792;9.172;2024-01-07T15:59:32;97535.46;;;15.51;70.82
60375;BME280;70244;48.792;9.172;2024-01-07T16:02:03;97533.98;;;15.56;70.85
60375;BME280;70244;48.792;9.172;2024-01-07T16:04:34;97538.32;;;15.71;70.61
60375;BME280;70244;48.792;9.172;2024-01-07T16:07:05;97540.23;;;15.84;70.41
60375;BME280;70244;48.792;9.172;2024-01-07T16:09:35;97546.42;;;15.98;70.21
60375;BME280;70244;48.792;9.172;2024-01-07T16:12:07;97550.70;;;16.25;69.52
60375;BME280;70244;48.792;9.172;2024-01-07T16:14:37;97556.16;;;16.33;69.37
60375;BME280;70244;48.792;9.172;2024-01-07T16:17:08;97561.27;;;16.51;68.88
60375;BME280;70244;48.792;9.172;2024-01-07T16:19:39;97563.31;;;16.55;68.80
60375;BME280;70244;48.792;9.172;2024-01-07T16:22:09;97569.69;;;16.64;68.56
60375;BME280;70244;48.792;9.172;2024-01-07T16:24:40;97571.37;;;16.65;68.62
60375;BME280;70244;48.792;9.172;2024-01-07T16:27:11;97574.29;;;16.71;68.52
60375;BME280;70244;48.792;9.172;2024-01-07T16:29:42;97579.75;;;16.77;68.43
60375;BME280;70244;48.792;9.172;2024-01-07T16:32:13;97583.49;;;16.85;68.30
60375;BME280;70244;48.792;9.172;2024-01-07T16:34:43;97586.53;;;16.96;68.08
60375;BME280;70244;48.792;9.172;2024-01-07T16:37:14;97590.88;;;17.00;68.04
60375;BME280;70244;48.792;9.172;2024-01-07T16:39:45;97594.61;;;17.07;67.92
60375;BME280;70244;48.792;9.172;2024-01-07T16:42:16;97598.21;;;17.08;67.83
60375;BME280;70244;48.792;9.172;2024-01-07T16:44:46;97599.35;;;17.24;67.43
60375;BME280;70244;48.792;9.172;2024-01-07T16:47:17;97596.31;;;17.18;67.52
60375;BME280;70244;48.792;9.172;2024-01-07T16:49:48;97600.76;;;17.23;67.46
60375;BME280;70244;48.792;9.172;2024-01-07T16:52:19;97602.94;;;17.19;67.56
60375;BME280;70244;48.792;9.172;2024-01-07T16:54:49;97610.86;;;17.16;67.65
60375;BME280;70244;48.792;9.172;2024-01-07T16:57:20;97611.71;;;17.18;67.67
60375;BME280;70244;48.792;9.172;2024-01-07T16:59:51;97609.32;;;17.18;67.67
60375;BME280;70244;48.792;9.172;2024-01-07T17:02:22;97612.11;;;17.25;67.45
60375;BME280;70244;48.792;9.172;2024-01-07T17:04:52;97613.43;;;17.31;67.21
60375;BME280;70244;48.792;9.172;2024-01-07T17:07:23;97612.43;;;17.29;67.27
60375;BME280;70244;48.792;9.172;2024-01-07T17:09:54;97614.17;;;17.34;67.12
60375;BME280;70244;48.792;9.172;2024-01-07T17:12:25;97619.23;;;17.25;67.36
60375;BME280;70244;48.792;9.172;2024-01-07T17:14:56;97621.90;;;17.19;67.52
60375;BME280;70244;48.792;9.172;2024-01-07T17:17:26;97622.44;;;17.16;67.54
60375;BME280;70244;48.792;9.172;2024-01-07T17:19:57;97629.44;;;17.27;67.31
60375;BME280;70244;48.792;9.172;2024-01-07T17:22:28;97634.04;;;17.15;67.60
60375;BME280;70244;48.792;9.172;2024-01-07T17:24:59;97634.98;;;17.13;67.65
60375;BME280;70244;48.792;9.172;2024-01-07T17:27:29;97637.53;;;17.07;67.78
60375;BME280;70244;48.792;9.172;2024-01-07T17:30:00;97640.67;;;17.11;67.67
60375;BME280;70244;48.792;9.172;2024-01-07T17:32:31;97643.42;;;17.14;67.69
60375;BME280;70244;48.792;9.172;2024-01-07T17:35:02;97645.44;;;17.05;67.88
60375;BME280;70244;48.792;9.172;2024-01-07T17:37:32;97645.34;;;17.14;67.68
60375;BME280;70244;48.792;9.172;2024-01-07T17:40:04;97646.88;;;17.16;67.60
60375;BME280;70244;48.792;9.172;2024-01-07T17:42:34;97652.22;;;17.23;67.42
60375;BME280;70244;48.792;9.172;2024-01-07T17:45:06;97653.68;;;17.17;67.56
60375;BME280;70244;48.792;9.172;2024-01-07T17:47:36;97654.24;;;17.07;67.84
60375;BME280;70244;48.792;9.172;2024-01-07T17:50:08;97656.42;;;17.17;67.50
60375;BME280;70244;48.792;9.172;2024-01-07T17:52:37;97658.42;;;17.09;67.74
60375;BME280;70244;48.792;9.172;2024-01-07T17:55:08;97655.57;;;17.12;67.72
60375;BME280;70244;48.792;9.172;2024-01-07T17:57:39;97658.73;;;17.05;67.92
60375;BME280;70244;48.792;9.172;2024-01-07T18:00:10;97658.66;;;17.02;68.04
60375;BME280;70244;48.792;9.172;2024-01-07T18:02:40;97664.30;;;17.02;68.05
60375;BME280;70244;48.792;9.172;2024-01-07T18:05:11;97666.30;;;17.07;67.92
60375;BME280;70244;48.792;9.172;2024-01-07T18:07:42;97669.57;;;16.97;68.22
60375;BME280;70244;48.792;9.172;2024-01-07T18:10:12;97669.04;;;17.03;68.06
60375;BME280;70244;48.792;9.172;2024-01-07T18:12:43;97670.52;;;17.04;68.07
60375;BME280;70244;48.792;9.172;2024-01-07T18:15:14;97674.63;;;17.00;68.13
60375;BME280;70244;48.792;9.172;2024-01-07T18:17:45;97675.51;;;17.07;67.93
60375;BME280;70244;48.792;9.172;2024-01-07T18:20:16;97678.98;;;17.06;67.98
60375;BME280;70244;48.792;9.172;2024-01-07T18:22:46;97682.03;;;17.05;67.97
60375;BME280;70244;48.792;9.172;2024-01-07T18:25:17;97686.00;;;17.08;67.88
60375;BME280;70244;48.792;9.172;2024-01-07T18:27:48;97687.00;;;17.00;68.14
60375;BME280;70244;48.792;9.172;2024-01-07T18:30:19;97691.58;;;17.10;67.79
60375;BME280;70244;48.792;9.172;2024-01-07T18:32:49;97694.03;;;17.19;67.52
60375;BME280;70244;48.792;9.172;2024-01-07T18:35:20;97701.23;;;17.00;68.02
60375;BME280;70244;48.792;9.172;2024-01-07T18:37:50;97702.91;;;16.93;68.26
60375;BME280;70244;48.792;9.172;2024-01-07T18:40:21;97703.24;;;16.97;68.19
60375;BME280;70244;48.792;9.172;2024-01-07T18:42:52;97702.23;;;16.97;68.22